sensor_id;sensor_type;location;lat;lon;timestamp;temperature;humidity
26304;DHT22;57113;48.680;8.890;2022-08-19T00:00:11;24.00;92.10
26304;DHT22;57113;48.680;8.890;2022-08-19T00:02:41;24.00;92.10
26304;DHT22;57113;48.680;8.890;2022-08-19T00:05:08;24.10;92.10
26304;DHT22;57113;48.680;8.890;2022-08-19T00:07:34;24.00;92.10
26304;DHT22;57113;48.680;8.890;2022-08-19T00:09:59;24.00;92.10
26304;DHT22;57113;48.680;8.890;2022-08-19T00:12:26;24.00;92.10
26304;DHT22;57113;48.680;8.890;2022-08-19T00:14:52;24.00;92.10
26304;DHT22;57113;48.680;8.890;2022-08-19T00:17:20;24.00;92.10
26304;DHT22;57113;48.680;8.890;2022-08-19T00:19:45;24.00;92.10
26304;DHT22;57113;48.680;8.890;2022-08-19T00:22:11;24.00;92.20
26304;DHT22;57113;48.680;8.890;2022-08-19T00:24:37;24.00;92.20
26304;DHT22;57113;48.680;8.890;2022-08-19T00:27:04;24.00;92.20
26304;DHT22;57113;48.680;8.890;2022-08-19T00:29:30;23.90;92.20
26304;DHT22;57113;48.680;8.890;2022-08-19T00:31:57;23.90;92.20
26304;DHT22;57113;48.680;8.890;2022-08-19T00:34:24;23.90;92.20
26304;DHT22;57113;48.680;8.890;2022-08-19T00:36:53;23.90;92.60
26304;DHT22;57113;48.680;8.890;2022-08-19T00:39:19;23.90;92.30
26304;DHT22;57113;48.680;8.890;2022-08-19T00:41:47;23.90;92.40
26304;DHT22;57113;48.680;8.890;2022-08-19T00:44:23;23.90;92.60
26304;DHT22;57113;48.680;8.890;2022-08-19T00:46:50;23.90;92.80
26304;DHT22;57113;48.680;8.890;2022-08-19T00:49:34;24.00;93.00
26304;DHT22;57113;48.680;8.890;2022-08-19T00:52:07;23.90;93.10
26304;DHT22;57113;48.680;8.890;2022-08-19T00:54:35;23.90;93.20
26304;DHT22;57113;48.680;8.890;2022-08-19T00:57:06;23.90;93.30
26304;DHT22;57113;48.680;8.890;2022-08-19T00:59:35;23.90;93.30
26304;DHT22;57113;48.680;8.890;2022-08-19T01:02:02;23.90;93.30
26304;DHT22;57113;48.680;8.890;2022-08-19T01:04:27;23.90;93.30
26304;DHT22;57113;48.680;8.890;2022-08-19T01:06:53;23.90;93.20
26304;DHT22;57113;48.680;8.890;2022-08-19T01:09:19;23.90;93.20
26304;DHT22;57113;48.680;8.890;2022-08-19T01:11:45;23.90;93.10
26304;DHT22;57113;48.680;8.890;2022-08-19T01:14:12;23.90;93.10
26304;DHT22;57113;48.680;8.890;2022-08-19T01:16:39;23.90;93.10
26304;DHT22;57113;48.680;8.890;2022-08-19T01:21:57;23.90;93.00
26304;DHT22;57113;48.680;8.890;2022-08-19T01:24:25;23.90;93.00
26304;DHT22;57113;48.680;8.890;2022-08-19T01:26:51;23.90;93.00
26304;DHT22;57113;48.680;8.890;2022-08-19T01:29:17;23.90;93.00
26304;DHT22;57113;48.680;8.890;2022-08-19T01:31:43;23.90;92.90
26304;DHT22;57113;48.680;8.890;2022-08-19T01:34:08;23.80;92.90
26304;DHT22;57113;48.680;8.890;2022-08-19T01:36:39;23.90;92.90
26304;DHT22;57113;48.680;8.890;2022-08-19T01:39:18;23.90;92.80
26304;DHT22;57113;48.680;8.890;2022-08-19T01:41:45;23.80;92.80
26304;DHT22;57113;48.680;8.890;2022-08-19T01:44:11;23.80;92.80
26304;DHT22;57113;48.680;8.890;2022-08-19T01:46:38;23.90;92.90
26304;DHT22;57113;48.680;8.890;2022-08-19T01:49:05;23.80;93.00
26304;DHT22;57113;48.680;8.890;2022-08-19T01:51:31;23.80;93.00
26304;DHT22;57113;48.680;8.890;2022-08-19T01:53:57;23.90;93.20
26304;DHT22;57113;48.680;8.890;2022-08-19T01:56:24;23.90;93.30
26304;DHT22;57113;48.680;8.890;2022-08-19T01:58:56;23.90;93.40
26304;DHT22;57113;48.680;8.890;2022-08-19T02:01:23;23.80;93.40
26304;DHT22;57113;48.680;8.890;2022-08-19T02:03:48;23.90;93.50
26304;DHT22;57113;48.680;8.890;2022-08-19T02:06:14;23.80;93.50
26304;DHT22;57113;48.680;8.890;2022-08-19T02:08:42;23.80;93.50
26304;DHT22;57113;48.680;8.890;2022-08-19T02:11:19;23.80;93.50
26304;DHT22;57113;48.680;8.890;2022-08-19T02:13:45;23.80;93.40
26304;DHT22;57113;48.680;8.890;2022-08-19T02:16:11;23.80;93.40
26304;DHT22;57113;48.680;8.890;2022-08-19T02:18:36;23.80;93.40
26304;DHT22;57113;48.680;8.890;2022-08-19T02:21:02;23.80;93.40
26304;DHT22;57113;48.680;8.890;2022-08-19T02:23:28;23.80;93.40
26304;DHT22;57113;48.680;8.890;2022-08-19T02:25:53;23.80;93.40
26304;DHT22;57113;48.680;8.890;2022-08-19T02:28:19;23.80;93.40
26304;DHT22;57113;48.680;8.890;2022-08-19T02:30:46;23.80;93.30
26304;DHT22;57113;48.680;8.890;2022-08-19T02:33:12;23.80;93.30
26304;DHT22;57113;48.680;8.890;2022-08-19T02:35:44;23.70;93.30
26304;DHT22;57113;48.680;8.890;2022-08-19T02:38:11;23.70;93.30
26304;DHT22;57113;48.680;8.890;2022-08-19T02:40:58;23.70;93.20
26304;DHT22;57113;48.680;8.890;2022-08-19T02:43:25;23.70;93.30
26304;DHT22;57113;48.680;8.890;2022-08-19T02:45:51;23.70;93.20
26304;DHT22;57113;48.680;8.890;2022-08-19T02:48:20;23.70;93.20
26304;DHT22;57113;48.680;8.890;2022-08-19T02:50:47;23.70;93.20
26304;DHT22;57113;48.680;8.890;2022-08-19T02:53:13;23.70;93.20
26304;DHT22;57113;48.680;8.890;2022-08-19T02:55:43;23.70;93.20
26304;DHT22;57113;48.680;8.890;2022-08-19T02:58:10;23.60;93.20
26304;DHT22;57113;48.680;8.890;2022-08-19T03:00:35;23.70;93.30
26304;DHT22;57113;48.680;8.890;2022-08-19T03:03:01;23.70;93.30
26304;DHT22;57113;48.680;8.890;2022-08-19T03:05:27;23.60;93.20
26304;DHT22;57113;48.680;8.890;2022-08-19T03:07:53;23.60;93.30
26304;DHT22;57113;48.680;8.890;2022-08-19T03:10:18;23.60;93.30
26304;DHT22;57113;48.680;8.890;2022-08-19T03:12:44;23.60;93.30
26304;DHT22;57113;48.680;8.890;2022-08-19T03:15:11;23.60;93.40
26304;DHT22;57113;48.680;8.890;2022-08-19T03:17:37;23.60;93.40
26304;DHT22;57113;48.680;8.890;2022-08-19T03:20:03;23.60;93.40
26304;DHT22;57113;48.680;8.890;2022-08-19T03:22:29;23.60;93.40
26304;DHT22;57113;48.680;8.890;2022-08-19T03:24:55;23.60;93.40
26304;DHT22;57113;48.680;8.890;2022-08-19T03:27:21;23.60;93.40
26304;DHT22;57113;48.680;8.890;2022-08-19T03:29:47;23.60;93.40
26304;DHT22;57113;48.680;8.890;2022-08-19T03:32:13;23.60;93.40
26304;DHT22;57113;48.680;8.890;2022-08-19T03:34:39;23.60;93.40
26304;DHT22;57113;48.680;8.890;2022-08-19T03:37:07;23.50;93.50
26304;DHT22;57113;48.680;8.890;2022-08-19T03:39:35;23.60;93.50
26304;DHT22;57113;48.680;8.890;2022-08-19T03:42:01;23.50;93.40
26304;DHT22;57113;48.680;8.890;2022-08-19T03:44:28;23.50;93.50
26304;DHT22;57113;48.680;8.890;2022-08-19T03:46:57;23.50;93.50
26304;DHT22;57113;48.680;8.890;2022-08-19T03:49:25;23.50;93.50
26304;DHT22;57113;48.680;8.890;2022-08-19T03:51:53;23.50;93.50
26304;DHT22;57113;48.680;8.890;2022-08-19T03:54:21;23.50;93.50
26304;DHT22;57113;48.680;8.890;2022-08-19T03:56:50;23.50;93.50
26304;DHT22;57113;48.680;8.890;2022-08-19T03:59:29;23.50;93.50
26304;DHT22;57113;48.680;8.890;2022-08-19T04:01:57;23.50;93.50
26304;DHT22;57113;48.680;8.890;2022-08-19T04:04:24;23.40;93.50
26304;DHT22;57113;48.680;8.890;2022-08-19T04:06:51;23.50;93.60
26304;DHT22;57113;48.680;8.890;2022-08-19T04:09:18;23.40;93.60
26304;DHT22;57113;48.680;8.890;2022-08-19T04:11:50;23.40;93.60
26304;DHT22;57113;48.680;8.890;2022-08-19T04:14:21;23.40;93.60
26304;DHT22;57113;48.680;8.890;2022-08-19T04:16:48;23.40;93.60
26304;DHT22;57113;48.680;8.890;2022-08-19T04:19:15;23.40;93.70
26304;DHT22;57113;48.680;8.890;2022-08-19T04:21:44;23.40;93.70
26304;DHT22;57113;48.680;8.890;2022-08-19T04:24:11;23.40;93.60
26304;DHT22;57113;48.680;8.890;2022-08-19T04:26:37;23.40;94.00
26304;DHT22;57113;48.680;8.890;2022-08-19T04:29:18;23.40;93.60
26304;DHT22;57113;48.680;8.890;2022-08-19T04:31:45;23.40;93.60
26304;DHT22;57113;48.680;8.890;2022-08-19T04:34:12;23.40;93.60
26304;DHT22;57113;48.680;8.890;2022-08-19T04:36:40;23.40;93.60
26304;DHT22;57113;48.680;8.890;2022-08-19T04:39:14;23.40;93.60
26304;DHT22;57113;48.680;8.890;2022-08-19T04:41:40;23.40;93.60
26304;DHT22;57113;48.680;8.890;2022-08-19T04:44:24;23.40;93.60
26304;DHT22;57113;48.680;8.890;2022-08-19T04:46:50;23.40;93.60
26304;DHT22;57113;48.680;8.890;2022-08-19T04:49:18;23.40;93.60
26304;DHT22;57113;48.680;8.890;2022-08-19T04:51:46;23.40;93.60
26304;DHT22;57113;48.680;8.890;2022-08-19T04:54:16;23.40;93.60
26304;DHT22;57113;48.680;8.890;2022-08-19T04:56:43;23.40;93.70
26304;DHT22;57113;48.680;8.890;2022-08-19T04:59:09;23.40;93.70
26304;DHT22;57113;48.680;8.890;2022-08-19T05:01:36;23.40;93.70
26304;DHT22;57113;48.680;8.890;2022-08-19T05:04:04;23.40;93.70
26304;DHT22;57113;48.680;8.890;2022-08-19T05:06:31;23.40;93.70
26304;DHT22;57113;48.680;8.890;2022-08-19T05:09:00;23.40;93.80
26304;DHT22;57113;48.680;8.890;2022-08-19T05:11:28;23.30;93.70
26304;DHT22;57113;48.680;8.890;2022-08-19T05:13:55;23.40;93.80
26304;DHT22;57113;48.680;8.890;2022-08-19T05:16:22;23.40;93.80
26304;DHT22;57113;48.680;8.890;2022-08-19T05:18:49;23.30;93.80
26304;DHT22;57113;48.680;8.890;2022-08-19T05:21:33;23.30;93.80
26304;DHT22;57113;48.680;8.890;2022-08-19T05:24:19;23.30;93.90
26304;DHT22;57113;48.680;8.890;2022-08-19T05:26:51;23.30;93.90
26304;DHT22;57113;48.680;8.890;2022-08-19T05:29:21;23.30;93.90
26304;DHT22;57113;48.680;8.890;2022-08-19T05:31:48;23.30;93.90
26304;DHT22;57113;48.680;8.890;2022-08-19T05:34:16;23.20;93.90
26304;DHT22;57113;48.680;8.890;2022-08-19T05:36:43;23.30;93.90
26304;DHT22;57113;48.680;8.890;2022-08-19T05:39:13;23.30;93.90
26304;DHT22;57113;48.680;8.890;2022-08-19T05:41:46;23.20;93.90
26304;DHT22;57113;48.680;8.890;2022-08-19T05:44:12;23.20;93.90
26304;DHT22;57113;48.680;8.890;2022-08-19T05:46:39;23.30;93.90
26304;DHT22;57113;48.680;8.890;2022-08-19T05:49:06;23.30;94.00
26304;DHT22;57113;48.680;8.890;2022-08-19T05:51:34;23.30;94.00
26304;DHT22;57113;48.680;8.890;2022-08-19T05:54:01;23.20;94.00
26304;DHT22;57113;48.680;8.890;2022-08-19T05:56:27;23.20;94.00
26304;DHT22;57113;48.680;8.890;2022-08-19T05:58:54;23.30;94.00
26304;DHT22;57113;48.680;8.890;2022-08-19T06:01:20;23.30;94.00
26304;DHT22;57113;48.680;8.890;2022-08-19T06:03:46;23.20;94.00
26304;DHT22;57113;48.680;8.890;2022-08-19T06:06:14;23.30;94.00
26304;DHT22;57113;48.680;8.890;2022-08-19T06:08:40;23.30;94.00
26304;DHT22;57113;48.680;8.890;2022-08-19T06:13:41;23.20;93.90
26304;DHT22;57113;48.680;8.890;2022-08-19T06:16:07;23.20;94.00
26304;DHT22;57113;48.680;8.890;2022-08-19T06:18:33;23.20;94.00
26304;DHT22;57113;48.680;8.890;2022-08-19T06:20:59;23.20;94.00
26304;DHT22;57113;48.680;8.890;2022-08-19T06:23:25;23.20;94.00
26304;DHT22;57113;48.680;8.890;2022-08-19T06:25:51;23.20;94.00
26304;DHT22;57113;48.680;8.890;2022-08-19T06:28:17;23.20;93.90
26304;DHT22;57113;48.680;8.890;2022-08-19T06:30:42;23.20;93.90
26304;DHT22;57113;48.680;8.890;2022-08-19T06:33:08;23.20;93.90
26304;DHT22;57113;48.680;8.890;2022-08-19T06:35:39;23.20;93.90
26304;DHT22;57113;48.680;8.890;2022-08-19T06:38:04;23.20;93.90
26304;DHT22;57113;48.680;8.890;2022-08-19T06:40:30;23.20;94.00
26304;DHT22;57113;48.680;8.890;2022-08-19T06:42:56;23.20;94.00
26304;DHT22;57113;48.680;8.890;2022-08-19T06:45:24;23.20;94.00
26304;DHT22;57113;48.680;8.890;2022-08-19T06:47:49;23.20;94.00
26304;DHT22;57113;48.680;8.890;2022-08-19T06:50:15;23.20;94.00
26304;DHT22;57113;48.680;8.890;2022-08-19T06:52:40;23.20;94.00
26304;DHT22;57113;48.680;8.890;2022-08-19T06:55:06;23.20;94.00
26304;DHT22;57113;48.680;8.890;2022-08-19T06:57:33;23.20;93.90
26304;DHT22;57113;48.680;8.890;2022-08-19T06:59:59;23.20;94.00
26304;DHT22;57113;48.680;8.890;2022-08-19T07:02:26;23.20;94.00
26304;DHT22;57113;48.680;8.890;2022-08-19T07:04:52;23.20;94.00
26304;DHT22;57113;48.680;8.890;2022-08-19T07:07:20;23.20;94.00
26304;DHT22;57113;48.680;8.890;2022-08-19T07:09:46;23.20;94.00
26304;DHT22;57113;48.680;8.890;2022-08-19T07:12:13;23.20;94.00
26304;DHT22;57113;48.680;8.890;2022-08-19T07:14:42;23.20;94.10
26304;DHT22;57113;48.680;8.890;2022-08-19T07:17:10;23.20;94.10
26304;DHT22;57113;48.680;8.890;2022-08-19T07:19:38;23.20;94.10
26304;DHT22;57113;48.680;8.890;2022-08-19T07:22:05;23.20;94.10
26304;DHT22;57113;48.680;8.890;2022-08-19T07:24:32;23.20;94.10
26304;DHT22;57113;48.680;8.890;2022-08-19T07:27:00;23.20;94.10
26304;DHT22;57113;48.680;8.890;2022-08-19T07:29:29;23.20;94.10
26304;DHT22;57113;48.680;8.890;2022-08-19T07:31:56;23.20;94.10
26304;DHT22;57113;48.680;8.890;2022-08-19T07:34:23;23.10;94.10
26304;DHT22;57113;48.680;8.890;2022-08-19T07:36:50;23.10;94.10
26304;DHT22;57113;48.680;8.890;2022-08-19T07:39:28;23.20;94.10
26304;DHT22;57113;48.680;8.890;2022-08-19T07:41:57;23.20;93.90
26304;DHT22;57113;48.680;8.890;2022-08-19T07:44:23;23.30;93.80
26304;DHT22;57113;48.680;8.890;2022-08-19T07:46:52;23.40;93.80
26304;DHT22;57113;48.680;8.890;2022-08-19T07:49:19;23.40;93.70
26304;DHT22;57113;48.680;8.890;2022-08-19T07:51:52;23.40;93.60
26304;DHT22;57113;48.680;8.890;2022-08-19T07:54:18;23.40;93.60
26304;DHT22;57113;48.680;8.890;2022-08-19T07:56:44;23.30;93.90
26304;DHT22;57113;48.680;8.890;2022-08-19T07:59:10;23.20;94.10
26304;DHT22;57113;48.680;8.890;2022-08-19T08:01:38;23.20;94.10
26304;DHT22;57113;48.680;8.890;2022-08-19T08:04:06;23.20;94.00
26304;DHT22;57113;48.680;8.890;2022-08-19T08:06:51;23.30;93.90
26304;DHT22;57113;48.680;8.890;2022-08-19T08:09:40;23.40;93.90
26304;DHT22;57113;48.680;8.890;2022-08-19T08:12:11;23.40;93.90
26304;DHT22;57113;48.680;8.890;2022-08-19T08:14:45;23.40;93.80
26304;DHT22;57113;48.680;8.890;2022-08-19T08:17:14;23.50;93.80
26304;DHT22;57113;48.680;8.890;2022-08-19T08:19:41;23.50;93.80
26304;DHT22;57113;48.680;8.890;2022-08-19T08:22:08;23.50;93.70
26304;DHT22;57113;48.680;8.890;2022-08-19T08:24:54;23.50;93.70
26304;DHT22;57113;48.680;8.890;2022-08-19T08:27:20;23.60;93.70
26304;DHT22;57113;48.680;8.890;2022-08-19T08:29:45;23.60;93.70
26304;DHT22;57113;48.680;8.890;2022-08-19T08:32:11;23.60;93.70
26304;DHT22;57113;48.680;8.890;2022-08-19T08:34:37;23.60;93.70
26304;DHT22;57113;48.680;8.890;2022-08-19T08:37:02;23.60;93.70
26304;DHT22;57113;48.680;8.890;2022-08-19T08:39:29;23.60;93.70
26304;DHT22;57113;48.680;8.890;2022-08-19T08:42:12;23.60;93.70
26304;DHT22;57113;48.680;8.890;2022-08-19T08:44:58;23.60;93.60
26304;DHT22;57113;48.680;8.890;2022-08-19T08:47:25;23.60;93.70
26304;DHT22;57113;48.680;8.890;2022-08-19T08:49:54;23.60;93.70
26304;DHT22;57113;48.680;8.890;2022-08-19T08:52:22;23.60;93.60
26304;DHT22;57113;48.680;8.890;2022-08-19T08:54:52;23.60;93.60
26304;DHT22;57113;48.680;8.890;2022-08-19T08:57:35;23.60;93.60
26304;DHT22;57113;48.680;8.890;2022-08-19T09:00:07;23.60;93.60
26304;DHT22;57113;48.680;8.890;2022-08-19T09:02:33;23.60;93.60
26304;DHT22;57113;48.680;8.890;2022-08-19T09:04:59;23.60;93.60
26304;DHT22;57113;48.680;8.890;2022-08-19T09:10:14;23.70;93.60
26304;DHT22;57113;48.680;8.890;2022-08-19T09:15:34;23.70;93.60
26304;DHT22;57113;48.680;8.890;2022-08-19T09:18:01;23.70;93.60
26304;DHT22;57113;48.680;8.890;2022-08-19T09:20:28;23.70;93.60
26304;DHT22;57113;48.680;8.890;2022-08-19T09:22:54;23.70;93.60
26304;DHT22;57113;48.680;8.890;2022-08-19T09:25:22;23.70;93.60
26304;DHT22;57113;48.680;8.890;2022-08-19T09:27:49;23.70;93.60
26304;DHT22;57113;48.680;8.890;2022-08-19T09:30:26;23.70;93.60
26304;DHT22;57113;48.680;8.890;2022-08-19T09:32:52;23.60;93.60
26304;DHT22;57113;48.680;8.890;2022-08-19T09:35:21;23.70;93.60
26304;DHT22;57113;48.680;8.890;2022-08-19T09:37:47;23.70;93.60
26304;DHT22;57113;48.680;8.890;2022-08-19T09:40:14;23.70;93.60
26304;DHT22;57113;48.680;8.890;2022-08-19T09:42:40;23.70;93.60
26304;DHT22;57113;48.680;8.890;2022-08-19T09:45:09;23.70;93.60
26304;DHT22;57113;48.680;8.890;2022-08-19T09:47:35;23.70;93.60
26304;DHT22;57113;48.680;8.890;2022-08-19T09:50:05;23.70;93.60
26304;DHT22;57113;48.680;8.890;2022-08-19T09:52:32;23.70;93.60
26304;DHT22;57113;48.680;8.890;2022-08-19T09:54:58;23.70;93.60
26304;DHT22;57113;48.680;8.890;2022-08-19T09:57:24;23.70;93.60
26304;DHT22;57113;48.680;8.890;2022-08-19T09:59:50;23.70;93.60
26304;DHT22;57113;48.680;8.890;2022-08-19T10:02:15;23.70;93.60
26304;DHT22;57113;48.680;8.890;2022-08-19T10:04:41;23.70;93.60
26304;DHT22;57113;48.680;8.890;2022-08-19T10:07:25;23.70;93.60
26304;DHT22;57113;48.680;8.890;2022-08-19T10:09:51;23.70;93.60
26304;DHT22;57113;48.680;8.890;2022-08-19T10:12:17;23.70;93.60
26304;DHT22;57113;48.680;8.890;2022-08-19T10:14:42;23.70;93.60
26304;DHT22;57113;48.680;8.890;2022-08-19T10:17:08;23.70;93.90
26304;DHT22;57113;48.680;8.890;2022-08-19T10:19:34;23.70;93.60
26304;DHT22;57113;48.680;8.890;2022-08-19T10:22:05;23.70;93.60
26304;DHT22;57113;48.680;8.890;2022-08-19T10:24:33;23.70;93.50
26304;DHT22;57113;48.680;8.890;2022-08-19T10:27:00;23.70;93.50
26304;DHT22;57113;48.680;8.890;2022-08-19T10:29:26;23.80;93.60
26304;DHT22;57113;48.680;8.890;2022-08-19T10:31:53;23.80;93.60
26304;DHT22;57113;48.680;8.890;2022-08-19T10:34:19;23.70;93.50
26304;DHT22;57113;48.680;8.890;2022-08-19T10:36:45;23.70;93.60
26304;DHT22;57113;48.680;8.890;2022-08-19T10:39:11;23.70;93.50
26304;DHT22;57113;48.680;8.890;2022-08-19T10:41:39;23.70;93.50
26304;DHT22;57113;48.680;8.890;2022-08-19T10:44:07;23.70;93.50
26304;DHT22;57113;48.680;8.890;2022-08-19T10:46:36;23.70;93.50
26304;DHT22;57113;48.680;8.890;2022-08-19T10:49:04;23.70;93.50
26304;DHT22;57113;48.680;8.890;2022-08-19T10:51:31;23.70;93.50
26304;DHT22;57113;48.680;8.890;2022-08-19T10:54:16;23.70;93.50
26304;DHT22;57113;48.680;8.890;2022-08-19T10:56:42;23.70;93.40
26304;DHT22;57113;48.680;8.890;2022-08-19T10:59:27;23.70;93.50
26304;DHT22;57113;48.680;8.890;2022-08-19T11:02:01;23.70;93.40
26304;DHT22;57113;48.680;8.890;2022-08-19T11:04:27;23.70;93.40
26304;DHT22;57113;48.680;8.890;2022-08-19T11:06:53;23.70;93.40
26304;DHT22;57113;48.680;8.890;2022-08-19T11:09:22;23.70;93.40
26304;DHT22;57113;48.680;8.890;2022-08-19T11:11:52;23.70;93.40
26304;DHT22;57113;48.680;8.890;2022-08-19T11:14:19;23.70;93.40
26304;DHT22;57113;48.680;8.890;2022-08-19T11:16:47;23.70;93.40
26304;DHT22;57113;48.680;8.890;2022-08-19T11:19:13;23.70;93.40
26304;DHT22;57113;48.680;8.890;2022-08-19T11:21:43;23.70;93.30
26304;DHT22;57113;48.680;8.890;2022-08-19T11:24:13;23.70;93.30
26304;DHT22;57113;48.680;8.890;2022-08-19T11:26:41;23.70;93.30
26304;DHT22;57113;48.680;8.890;2022-08-19T11:29:09;23.80;93.30
26304;DHT22;57113;48.680;8.890;2022-08-19T11:31:41;23.80;93.30
26304;DHT22;57113;48.680;8.890;2022-08-19T11:34:10;23.80;93.30
26304;DHT22;57113;48.680;8.890;2022-08-19T11:36:38;23.70;93.30
26304;DHT22;57113;48.680;8.890;2022-08-19T11:39:08;23.80;93.30
26304;DHT22;57113;48.680;8.890;2022-08-19T11:41:34;23.80;93.30
26304;DHT22;57113;48.680;8.890;2022-08-19T11:43:59;23.80;93.20
26304;DHT22;57113;48.680;8.890;2022-08-19T11:46:26;23.80;93.20
26304;DHT22;57113;48.680;8.890;2022-08-19T11:48:55;23.80;93.20
26304;DHT22;57113;48.680;8.890;2022-08-19T11:51:24;23.70;93.10
26304;DHT22;57113;48.680;8.890;2022-08-19T11:53:51;23.70;93.10
26304;DHT22;57113;48.680;8.890;2022-08-19T11:56:18;23.60;93.20
26304;DHT22;57113;48.680;8.890;2022-08-19T11:58:44;23.60;93.20
26304;DHT22;57113;48.680;8.890;2022-08-19T12:01:12;23.60;93.20
26304;DHT22;57113;48.680;8.890;2022-08-19T12:03:38;23.60;93.30
26304;DHT22;57113;48.680;8.890;2022-08-19T12:06:10;23.70;93.10
26304;DHT22;57113;48.680;8.890;2022-08-19T12:08:37;23.70;93.10
26304;DHT22;57113;48.680;8.890;2022-08-19T12:11:04;23.70;93.10
26304;DHT22;57113;48.680;8.890;2022-08-19T12:13:31;23.70;93.10
26304;DHT22;57113;48.680;8.890;2022-08-19T12:15:57;23.70;93.10
26304;DHT22;57113;48.680;8.890;2022-08-19T12:18:23;23.70;93.10
26304;DHT22;57113;48.680;8.890;2022-08-19T12:20:51;23.70;93.00
26304;DHT22;57113;48.680;8.890;2022-08-19T12:23:17;23.70;93.00
26304;DHT22;57113;48.680;8.890;2022-08-19T12:25:46;23.70;93.00
26304;DHT22;57113;48.680;8.890;2022-08-19T12:28:16;23.70;92.90
26304;DHT22;57113;48.680;8.890;2022-08-19T12:30:42;23.70;92.90
26304;DHT22;57113;48.680;8.890;2022-08-19T12:33:08;23.70;92.90
26304;DHT22;57113;48.680;8.890;2022-08-19T12:35:34;23.70;92.70
26304;DHT22;57113;48.680;8.890;2022-08-19T12:37:59;23.80;92.80
26304;DHT22;57113;48.680;8.890;2022-08-19T12:40:26;23.70;92.70
26304;DHT22;57113;48.680;8.890;2022-08-19T12:42:53;23.80;92.70
26304;DHT22;57113;48.680;8.890;2022-08-19T12:45:19;23.80;92.60
26304;DHT22;57113;48.680;8.890;2022-08-19T12:47:44;23.90;92.60
26304;DHT22;57113;48.680;8.890;2022-08-19T12:50:11;23.90;92.50
26304;DHT22;57113;48.680;8.890;2022-08-19T12:52:37;23.80;92.40
26304;DHT22;57113;48.680;8.890;2022-08-19T12:55:06;23.80;92.30
26304;DHT22;57113;48.680;8.890;2022-08-19T12:57:31;23.80;92.30
26304;DHT22;57113;48.680;8.890;2022-08-19T13:00:05;23.80;92.30
26304;DHT22;57113;48.680;8.890;2022-08-19T13:02:34;23.90;92.30
26304;DHT22;57113;48.680;8.890;2022-08-19T13:05:00;23.90;92.20
26304;DHT22;57113;48.680;8.890;2022-08-19T13:07:26;23.90;92.10
26304;DHT22;57113;48.680;8.890;2022-08-19T13:09:52;23.90;92.20
26304;DHT22;57113;48.680;8.890;2022-08-19T13:12:18;23.90;92.20
26304;DHT22;57113;48.680;8.890;2022-08-19T13:14:45;23.90;92.10
26304;DHT22;57113;48.680;8.890;2022-08-19T13:17:16;23.90;92.10
26304;DHT22;57113;48.680;8.890;2022-08-19T13:19:42;23.90;92.10
26304;DHT22;57113;48.680;8.890;2022-08-19T13:22:07;23.90;92.10
26304;DHT22;57113;48.680;8.890;2022-08-19T13:24:33;23.90;92.10
26304;DHT22;57113;48.680;8.890;2022-08-19T13:27:00;23.80;92.10
26304;DHT22;57113;48.680;8.890;2022-08-19T13:29:26;23.90;92.20
26304;DHT22;57113;48.680;8.890;2022-08-19T13:32:10;23.80;92.20
26304;DHT22;57113;48.680;8.890;2022-08-19T13:34:55;23.80;92.20
26304;DHT22;57113;48.680;8.890;2022-08-19T13:37:21;23.80;92.20
26304;DHT22;57113;48.680;8.890;2022-08-19T13:40:09;23.90;92.20
26304;DHT22;57113;48.680;8.890;2022-08-19T13:42:38;23.90;92.20
26304;DHT22;57113;48.680;8.890;2022-08-19T13:45:05;23.90;92.20
26304;DHT22;57113;48.680;8.890;2022-08-19T13:47:32;23.90;92.20
26304;DHT22;57113;48.680;8.890;2022-08-19T13:50:02;23.90;92.20
26304;DHT22;57113;48.680;8.890;2022-08-19T13:52:28;23.90;92.50
26304;DHT22;57113;48.680;8.890;2022-08-19T13:54:53;23.90;92.20
26304;DHT22;57113;48.680;8.890;2022-08-19T13:57:19;23.90;92.20
26304;DHT22;57113;48.680;8.890;2022-08-19T13:59:45;23.90;92.10
26304;DHT22;57113;48.680;8.890;2022-08-19T14:02:11;23.90;92.10
26304;DHT22;57113;48.680;8.890;2022-08-19T14:04:37;24.00;92.10
26304;DHT22;57113;48.680;8.890;2022-08-19T14:07:03;23.90;92.10
26304;DHT22;57113;48.680;8.890;2022-08-19T14:09:30;23.90;92.20
26304;DHT22;57113;48.680;8.890;2022-08-19T14:11:55;23.90;92.10
26304;DHT22;57113;48.680;8.890;2022-08-19T14:14:21;23.90;92.50
26304;DHT22;57113;48.680;8.890;2022-08-19T14:16:48;23.90;92.10
26304;DHT22;57113;48.680;8.890;2022-08-19T14:19:14;23.90;92.10
26304;DHT22;57113;48.680;8.890;2022-08-19T14:21:39;23.90;92.10
26304;DHT22;57113;48.680;8.890;2022-08-19T14:24:07;23.90;92.00
26304;DHT22;57113;48.680;8.890;2022-08-19T14:26:32;23.90;92.00
26304;DHT22;57113;48.680;8.890;2022-08-19T14:28:58;23.90;92.00
26304;DHT22;57113;48.680;8.890;2022-08-19T14:31:24;23.90;91.90
26304;DHT22;57113;48.680;8.890;2022-08-19T14:33:50;23.90;91.90
26304;DHT22;57113;48.680;8.890;2022-08-19T14:36:18;23.90;92.00
26304;DHT22;57113;48.680;8.890;2022-08-19T14:38:45;23.90;92.00
26304;DHT22;57113;48.680;8.890;2022-08-19T14:41:14;23.90;92.00
26304;DHT22;57113;48.680;8.890;2022-08-19T14:43:41;23.90;91.80
26304;DHT22;57113;48.680;8.890;2022-08-19T14:46:07;23.90;91.90
26304;DHT22;57113;48.680;8.890;2022-08-19T14:48:35;24.00;91.90
26304;DHT22;57113;48.680;8.890;2022-08-19T14:51:04;23.90;91.90
26304;DHT22;57113;48.680;8.890;2022-08-19T14:53:30;24.00;91.90
26304;DHT22;57113;48.680;8.890;2022-08-19T14:55:55;23.90;91.80
26304;DHT22;57113;48.680;8.890;2022-08-19T14:58:21;23.90;91.80
26304;DHT22;57113;48.680;8.890;2022-08-19T15:00:48;23.90;91.80
26304;DHT22;57113;48.680;8.890;2022-08-19T15:03:13;23.90;91.90
26304;DHT22;57113;48.680;8.890;2022-08-19T15:05:39;23.90;91.80
26304;DHT22;57113;48.680;8.890;2022-08-19T15:08:05;23.90;91.80
26304;DHT22;57113;48.680;8.890;2022-08-19T15:10:31;23.90;91.80
26304;DHT22;57113;48.680;8.890;2022-08-19T15:12:56;23.90;91.80
26304;DHT22;57113;48.680;8.890;2022-08-19T15:15:22;23.90;91.80
26304;DHT22;57113;48.680;8.890;2022-08-19T15:17:48;23.90;92.20
26304;DHT22;57113;48.680;8.890;2022-08-19T15:20:16;23.90;91.80
26304;DHT22;57113;48.680;8.890;2022-08-19T15:22:42;23.90;91.80
26304;DHT22;57113;48.680;8.890;2022-08-19T15:25:10;23.90;91.80
26304;DHT22;57113;48.680;8.890;2022-08-19T15:27:38;23.90;91.80
26304;DHT22;57113;48.680;8.890;2022-08-19T15:30:05;23.90;91.90
26304;DHT22;57113;48.680;8.890;2022-08-19T15:32:31;23.90;91.80
26304;DHT22;57113;48.680;8.890;2022-08-19T15:34:57;24.00;91.80
26304;DHT22;57113;48.680;8.890;2022-08-19T15:37:23;24.00;91.80
26304;DHT22;57113;48.680;8.890;2022-08-19T15:39:49;24.00;91.80
26304;DHT22;57113;48.680;8.890;2022-08-19T15:42:15;24.00;91.80
26304;DHT22;57113;48.680;8.890;2022-08-19T15:44:41;23.90;91.80